createdAt,value
2022-11-09T00:01:29.382Z,6.86
2022-11-09T00:03:58.683Z,6.80
2022-11-09T00:06:28.099Z,6.74
2022-11-09T00:08:56.978Z,6.68
2022-11-09T00:11:25.356Z,6.63
2022-11-09T00:13:53.939Z,6.59
2022-11-09T00:16:23.037Z,6.54
2022-11-09T00:18:52.235Z,6.48
2022-11-09T00:21:22.442Z,6.44
2022-11-09T00:23:51.575Z,6.42
2022-11-09T00:26:20.552Z,6.39
2022-11-09T00:28:49.716Z,6.37
2022-11-09T00:31:20.609Z,6.34
2022-11-09T00:33:50.079Z,6.28
2022-11-09T00:36:19.365Z,6.23
2022-11-09T00:38:49.101Z,6.18
2022-11-09T00:41:17.791Z,6.15
2022-11-09T00:43:46.555Z,6.13
2022-11-09T00:46:15.570Z,6.09
2022-11-09T00:48:45.485Z,6.04
2022-11-09T00:51:14.479Z,5.98
2022-11-09T00:53:43.681Z,5.95
2022-11-09T00:56:13.194Z,5.95
2022-11-09T00:58:42.596Z,5.96
2022-11-09T01:01:13.045Z,5.97
2022-11-09T01:03:44.264Z,5.99
2022-11-09T01:06:32.056Z,6.01
2022-11-09T01:09:02.321Z,6.05
2022-11-09T01:11:31.009Z,6.08
2022-11-09T01:14:00.717Z,6.10
2022-11-09T01:16:30.495Z,6.12
2022-11-09T01:18:59.160Z,6.12
2022-11-09T01:21:28.109Z,6.12
2022-11-09T01:23:58.809Z,6.12
2022-11-09T01:26:29.989Z,6.11
2022-11-09T01:28:58.673Z,6.09
2022-11-09T01:31:27.670Z,6.05
2022-11-09T01:33:56.566Z,5.99
2022-11-09T01:36:26.884Z,5.93
2022-11-09T01:38:55.470Z,5.88
2022-11-09T01:41:26.366Z,5.81
2022-11-09T01:44:10.255Z,5.78
2022-11-09T01:46:51.446Z,5.76
2022-11-09T01:49:23.361Z,5.77
2022-11-09T01:51:58.788Z,5.79
2022-11-09T01:54:29.367Z,5.82
2022-11-09T01:57:01.363Z,5.83
2022-11-09T01:59:32.168Z,5.86
2022-11-09T02:02:01.265Z,5.85
2022-11-09T02:04:34.253Z,5.80
2022-11-09T02:07:03.169Z,5.70
2022-11-09T02:09:35.006Z,5.59
2022-11-09T02:12:03.996Z,5.46
2022-11-09T02:14:34.200Z,5.35
2022-11-09T02:17:03.214Z,5.26
2022-11-09T02:19:32.314Z,5.21
2022-11-09T02:22:00.588Z,5.14
2022-11-09T02:24:30.194Z,5.07
2022-11-09T02:26:58.984Z,5.05
2022-11-09T02:29:32.073Z,5.00
2022-11-09T02:32:07.307Z,4.91
2022-11-09T02:34:35.897Z,4.78
2022-11-09T02:37:04.586Z,4.68
2022-11-09T02:39:33.234Z,4.58
2022-11-09T02:42:11.391Z,4.50
2022-11-09T02:44:44.160Z,4.47
2022-11-09T02:47:12.864Z,4.47
2022-11-09T02:49:41.636Z,4.47
2022-11-09T02:52:10.534Z,4.47
2022-11-09T02:54:39.826Z,4.46
2022-11-09T02:57:08.521Z,4.46
2022-11-09T02:59:37.200Z,4.47
2022-11-09T03:02:06.706Z,4.48
2022-11-09T03:04:35.801Z,4.50
2022-11-09T03:07:05.430Z,4.55
2022-11-09T03:09:34.405Z,4.59
2022-11-09T03:12:23.058Z,4.64
2022-11-09T03:14:52.616Z,4.70
2022-11-09T03:17:21.361Z,4.76
2022-11-09T03:19:50.348Z,4.82
2022-11-09T03:22:19.957Z,4.89
2022-11-09T03:24:49.973Z,4.93
2022-11-09T03:27:18.641Z,4.93
2022-11-09T03:29:48.882Z,4.95
2022-11-09T03:32:18.079Z,4.96
2022-11-09T03:34:47.175Z,4.97
2022-11-09T03:37:16.465Z,4.99
2022-11-09T03:39:45.164Z,5.02
2022-11-09T03:42:13.747Z,5.04
2022-11-09T03:44:42.315Z,5.05
2022-11-09T03:47:10.818Z,5.06
2022-11-09T03:49:39.399Z,5.08
2022-11-09T03:52:07.950Z,5.07
2022-11-09T03:54:36.463Z,5.06
2022-11-09T03:57:05.354Z,5.06
2022-11-09T03:59:33.839Z,5.07
2022-11-09T04:02:02.369Z,5.06
2022-11-09T04:04:31.315Z,5.04
2022-11-09T04:06:59.872Z,5.01
2022-11-09T04:09:28.175Z,5.00
2022-11-09T04:11:57.030Z,4.98
2022-11-09T04:14:25.649Z,4.96
2022-11-09T04:16:53.926Z,4.94
2022-11-09T04:19:22.510Z,4.94
2022-11-09T04:21:52.016Z,4.97
2022-11-09T04:24:20.394Z,4.99
2022-11-09T04:26:48.983Z,5.01
2022-11-09T04:29:17.771Z,5.02
2022-11-09T04:31:48.505Z,4.99
2022-11-09T04:34:17.703Z,4.95
2022-11-09T04:36:46.289Z,4.89
2022-11-09T04:39:14.871Z,4.84
2022-11-09T04:41:43.556Z,4.82
2022-11-09T04:44:12.038Z,4.82
2022-11-09T04:46:40.623Z,4.82
2022-11-09T04:49:09.310Z,4.85
2022-11-09T04:51:38.010Z,4.90
2022-11-09T04:54:06.476Z,4.94
2022-11-09T04:56:35.228Z,4.97
2022-11-09T04:59:03.854Z,5.04
2022-11-09T05:01:32.331Z,5.10
2022-11-09T05:04:01.175Z,5.18
2022-11-09T05:06:32.537Z,5.22
2022-11-09T05:09:02.281Z,5.26
2022-11-09T05:11:31.176Z,5.28
2022-11-09T05:13:59.963Z,5.34
2022-11-09T05:16:29.333Z,5.39
2022-11-09T05:18:57.848Z,5.44
2022-11-09T05:21:26.322Z,5.51
2022-11-09T05:24:01.251Z,5.55
2022-11-09T05:26:31.694Z,5.59
2022-11-09T05:29:00.959Z,5.64
2022-11-09T05:31:29.948Z,5.69
2022-11-09T05:33:59.538Z,5.74
2022-11-09T05:36:28.697Z,5.75
2022-11-09T05:38:58.297Z,5.81
2022-11-09T05:41:27.399Z,5.87
2022-11-09T05:43:55.874Z,5.92
2022-11-09T05:46:25.585Z,5.97
2022-11-09T05:48:54.372Z,6.04
2022-11-09T05:51:22.754Z,6.11
2022-11-09T05:53:51.646Z,6.16
2022-11-09T05:56:20.842Z,6.19
2022-11-09T05:58:49.433Z,6.22
2022-11-09T06:01:21.159Z,6.25
2022-11-09T06:03:50.180Z,6.29
2022-11-09T06:06:18.562Z,6.33
2022-11-09T06:08:47.348Z,6.41
2022-11-09T06:11:23.160Z,6.48
2022-11-09T06:13:53.292Z,6.57
2022-11-09T06:16:21.906Z,6.65
2022-11-09T06:18:50.286Z,6.69
2022-11-09T06:21:18.973Z,6.73
2022-11-09T06:23:47.659Z,6.77
2022-11-09T06:26:16.249Z,6.82
2022-11-09T06:28:45.237Z,6.89
2022-11-09T06:31:16.075Z,7.00
2022-11-09T06:33:44.557Z,7.10
2022-11-09T06:36:13.656Z,7.19
2022-11-09T06:38:42.654Z,7.22
2022-11-09T06:41:11.578Z,7.29
2022-11-09T06:43:40.224Z,7.33
2022-11-09T06:46:11.050Z,7.33
2022-11-09T06:48:39.408Z,7.37
2022-11-09T06:51:07.991Z,7.42
2022-11-09T06:53:38.101Z,7.47
2022-11-09T06:56:06.933Z,7.56
2022-11-09T06:58:36.032Z,7.62
2022-11-09T07:01:11.741Z,7.66
2022-11-09T07:03:40.471Z,7.72
2022-11-09T07:06:10.897Z,7.77
2022-11-09T07:08:39.583Z,7.84
2022-11-09T07:11:12.897Z,7.91
2022-11-09T07:13:41.462Z,7.97
2022-11-09T07:16:12.203Z,8.02
2022-11-09T07:18:40.783Z,8.08
2022-11-09T07:21:14.036Z,8.15
2022-11-09T07:23:43.593Z,8.25
2022-11-09T07:26:12.547Z,8.34
2022-11-09T07:28:41.160Z,8.40
2022-11-09T07:31:10.257Z,8.46
2022-11-09T07:33:38.708Z,8.56
2022-11-09T07:36:07.272Z,8.70
2022-11-09T07:38:35.701Z,8.80
2022-11-09T07:41:04.285Z,8.92
2022-11-09T07:43:33.177Z,9.06
2022-11-09T07:46:05.276Z,9.22
2022-11-09T07:48:33.829Z,9.36
2022-11-09T07:51:02.820Z,9.45
2022-11-09T07:53:31.520Z,9.55
2022-11-09T07:56:01.221Z,9.70
2022-11-09T07:58:30.212Z,9.87
2022-11-09T08:00:59.585Z,9.97
2022-11-09T08:03:28.035Z,10.13
2022-11-09T08:05:56.888Z,10.29
2022-11-09T08:08:25.266Z,10.48
2022-11-09T08:10:56.469Z,10.65
2022-11-09T08:13:25.095Z,10.89
2022-11-09T08:15:53.680Z,11.07
2022-11-09T08:18:22.969Z,11.23
2022-11-09T08:20:51.570Z,11.35
2022-11-09T08:23:21.381Z,11.47
2022-11-09T08:25:50.681Z,11.67
2022-11-09T08:28:19.619Z,11.78
2022-11-09T08:30:56.249Z,11.88
2022-11-09T08:33:25.448Z,12.00
2022-11-09T08:35:54.077Z,12.28
2022-11-09T08:38:22.675Z,12.71
2022-11-09T08:40:51.812Z,13.19
2022-11-09T08:43:20.499Z,13.80
2022-11-09T08:45:48.878Z,14.37
2022-11-09T08:48:18.112Z,14.91
2022-11-09T08:50:51.578Z,15.49
2022-11-09T08:53:19.861Z,16.04
2022-11-09T08:55:49.669Z,16.45
2022-11-09T08:58:18.938Z,16.96
2022-11-09T09:00:48.167Z,17.44
2022-11-09T09:03:16.855Z,17.84
2022-11-09T09:05:45.134Z,18.23
2022-11-09T09:08:15.971Z,18.53
2022-11-09T09:10:45.067Z,18.92
2022-11-09T09:13:13.753Z,19.31
2022-11-09T09:15:42.337Z,19.55
2022-11-09T09:18:10.820Z,19.65
2022-11-09T09:20:39.414Z,19.83
2022-11-09T09:23:08.095Z,20.06
2022-11-09T09:25:36.677Z,20.21
2022-11-09T09:28:05.056Z,20.36
2022-11-09T09:30:33.952Z,20.45
2022-11-09T09:33:02.844Z,20.49
2022-11-09T09:35:31.126Z,20.57
2022-11-09T09:37:59.704Z,20.63
2022-11-09T09:40:37.199Z,20.67
2022-11-09T09:43:05.679Z,20.82
2022-11-09T09:45:36.004Z,21.05
2022-11-09T09:48:23.566Z,21.30
2022-11-09T09:50:59.116Z,21.50
2022-11-09T09:53:32.772Z,21.65
2022-11-09T09:56:07.362Z,21.86
2022-11-09T09:58:39.891Z,22.19
2022-11-09T10:01:20.181Z,22.45
2022-11-09T10:03:49.222Z,22.65
2022-11-09T10:06:20.390Z,22.84
2022-11-09T10:08:48.570Z,22.87
2022-11-09T10:11:26.674Z,22.82
2022-11-09T10:14:12.362Z,22.91
2022-11-09T10:16:41.046Z,23.17
2022-11-09T10:19:19.667Z,23.39
2022-11-09T10:21:50.713Z,23.63
2022-11-09T10:24:28.217Z,23.98
2022-11-09T10:26:58.083Z,24.43
2022-11-09T10:29:36.435Z,24.89
2022-11-09T10:32:15.543Z,25.37
2022-11-09T10:35:00.081Z,25.78
2022-11-09T10:37:41.716Z,26.39
2022-11-09T10:40:13.576Z,26.93
2022-11-09T10:43:03.329Z,27.59
2022-11-09T10:46:05.893Z,28.19
2022-11-09T10:48:54.393Z,27.73
2022-11-09T10:51:42.845Z,27.49
2022-11-09T10:54:33.960Z,27.53
2022-11-09T10:57:23.225Z,27.50
2022-11-09T11:00:18.235Z,27.66
2022-11-09T11:03:16.007Z,27.35
2022-11-09T11:06:03.428Z,26.98
2022-11-09T11:08:52.289Z,26.66
2022-11-09T11:11:40.329Z,27.00
2022-11-09T11:14:33.980Z,27.59
2022-11-09T11:17:25.483Z,28.28
2022-11-09T11:20:32.856Z,28.72
2022-11-09T11:23:21.693Z,29.41
2022-11-09T11:26:18.482Z,29.98
2022-11-09T11:29:13.942Z,30.60
2022-11-09T11:32:01.472Z,30.87
2022-11-09T11:35:04.242Z,31.10
2022-11-09T11:38:06.547Z,31.39
2022-11-09T11:41:02.464Z,31.61
2022-11-09T11:43:50.253Z,31.88
2022-11-09T11:47:09.992Z,31.81
2022-11-09T11:50:13.175Z,32.12
2022-11-09T11:53:08.180Z,32.40
2022-11-09T11:56:04.925Z,32.77
2022-11-09T11:59:07.202Z,33.01
2022-11-09T12:01:54.936Z,32.67
2022-11-09T12:04:51.101Z,32.44
2022-11-09T12:07:57.225Z,32.63
2022-11-09T12:10:47.527Z,33.06
2022-11-09T12:13:39.120Z,33.06
2022-11-09T12:16:35.079Z,32.52
2022-11-09T12:19:35.582Z,32.47
2022-11-09T12:22:32.096Z,32.79
2022-11-09T12:25:35.423Z,32.73
2022-11-09T12:28:46.747Z,32.56
2022-11-09T12:31:49.424Z,32.73
2022-11-09T12:34:44.636Z,33.07
2022-11-09T12:37:37.579Z,33.02
2022-11-09T12:40:26.043Z,33.37
2022-11-09T12:43:17.053Z,33.76
2022-11-09T12:46:05.503Z,33.95
2022-11-09T12:48:54.471Z,33.95
2022-11-09T12:51:42.001Z,33.53
2022-11-09T12:54:29.735Z,33.09
2022-11-09T12:57:22.794Z,32.60
2022-11-09T13:00:30.190Z,32.69
2022-11-09T13:03:25.702Z,32.77
2022-11-09T13:06:17.707Z,32.63
2022-11-09T13:09:17.451Z,32.38
2022-11-09T13:12:18.908Z,31.85
2022-11-09T13:15:34.499Z,31.95
2022-11-09T13:18:21.921Z,32.06
2022-11-09T13:21:21.258Z,32.12
2022-11-09T13:24:34.562Z,32.09
2022-11-09T13:27:35.067Z,32.15
2022-11-09T13:30:30.173Z,32.30
2022-11-09T13:33:22.571Z,32.31
2022-11-09T13:36:10.278Z,32.37
2022-11-09T13:39:16.342Z,32.36
2022-11-09T13:42:06.194Z,32.36
2022-11-09T13:44:53.958Z,32.32
2022-11-09T13:47:50.190Z,32.22
2022-11-09T13:50:37.699Z,32.04
2022-11-09T13:53:31.261Z,31.84
2022-11-09T13:56:33.162Z,31.67
2022-11-09T13:59:23.829Z,31.40
2022-11-09T14:02:21.737Z,31.04
2022-11-09T14:05:35.277Z,30.55
2022-11-09T14:08:28.032Z,29.92
2022-11-09T14:11:18.737Z,29.16
2022-11-09T14:14:25.105Z,28.40
2022-11-09T14:17:19.833Z,27.72
2022-11-09T14:20:19.112Z,27.11
2022-11-09T14:23:19.639Z,26.48
2022-11-09T14:26:10.752Z,25.78
2022-11-09T14:28:58.076Z,25.01
2022-11-09T14:31:45.928Z,24.24
2022-11-09T14:34:33.751Z,23.45
2022-11-09T14:37:21.383Z,22.70
2022-11-09T14:40:16.140Z,21.94
2022-11-09T14:43:22.449Z,21.18
2022-11-09T14:46:16.326Z,20.44
2022-11-09T14:49:03.550Z,19.81
2022-11-09T14:51:51.258Z,19.24
2022-11-09T14:54:44.725Z,18.73
2022-11-09T14:57:33.307Z,18.27
2022-11-09T15:00:25.573Z,17.84
2022-11-09T15:03:29.582Z,17.40
2022-11-09T15:06:18.113Z,16.96
2022-11-09T15:09:08.164Z,16.58
2022-11-09T15:11:55.421Z,16.22
2022-11-09T15:14:43.401Z,15.89
2022-11-09T15:17:32.220Z,15.63
2022-11-09T15:20:19.409Z,15.35
2022-11-09T15:23:21.126Z,15.08
2022-11-09T15:26:25.085Z,14.79
2022-11-09T15:29:41.940Z,14.52
2022-11-09T15:32:34.280Z,14.24
2022-11-09T15:35:21.600Z,14.01
2022-11-09T15:38:28.279Z,13.80
2022-11-09T15:41:18.367Z,13.56
2022-11-09T15:44:06.880Z,13.39
2022-11-09T15:46:54.756Z,13.22
2022-11-09T15:49:41.772Z,13.04
2022-11-09T15:52:28.838Z,12.88
2022-11-09T15:55:17.341Z,12.73
2022-11-09T15:58:04.873Z,12.58
2022-11-09T16:00:52.109Z,12.43
2022-11-09T16:03:39.415Z,12.27
2022-11-09T16:06:27.355Z,12.13
2022-11-09T16:09:14.988Z,11.98
2022-11-09T16:12:02.418Z,11.85
2022-11-09T16:14:49.635Z,11.72
2022-11-09T16:17:37.058Z,11.60
2022-11-09T16:20:24.485Z,11.48
2022-11-09T16:23:11.604Z,11.38
2022-11-09T16:26:00.160Z,11.28
2022-11-09T16:28:47.833Z,11.17
2022-11-09T16:31:50.803Z,11.05
2022-11-09T16:34:38.232Z,10.93
2022-11-09T16:37:26.042Z,10.82
2022-11-09T16:40:14.189Z,10.72
2022-11-09T16:43:02.123Z,10.62
2022-11-09T16:45:50.473Z,10.54
2022-11-09T16:48:38.004Z,10.47
2022-11-09T16:51:25.016Z,10.40
2022-11-09T16:54:12.546Z,10.33
2022-11-09T16:57:00.075Z,10.22
2022-11-09T16:59:47.198Z,10.12
2022-11-09T17:02:35.234Z,10.02
2022-11-09T17:05:22.653Z,9.93
2022-11-09T17:08:10.598Z,9.85
2022-11-09T17:10:58.025Z,9.76
2022-11-09T17:13:45.450Z,9.69
2022-11-09T17:16:32.363Z,9.66
2022-11-09T17:19:20.729Z,9.63
2022-11-09T17:22:08.408Z,9.62
2022-11-09T17:24:55.769Z,9.60
2022-11-09T17:27:42.890Z,9.57
2022-11-09T17:30:29.760Z,9.55
2022-11-09T17:33:17.228Z,9.51
2022-11-09T17:36:06.467Z,9.49
2022-11-09T17:39:33.392Z,9.46
2022-11-09T17:43:00.612Z,9.45
2022-11-09T17:45:47.728Z,9.46
2022-11-09T17:49:14.886Z,9.48
2022-11-09T17:52:46.038Z,9.54
2022-11-09T17:56:12.991Z,9.56
2022-11-09T17:59:40.353Z,9.53
2022-11-09T18:02:27.472Z,9.49
2022-11-09T18:05:16.676Z,9.47
2022-11-09T18:08:04.111Z,9.46
2022-11-09T18:10:51.256Z,9.46
2022-11-09T18:13:39.124Z,9.51
2022-11-09T18:16:26.966Z,9.58
2022-11-09T18:19:14.393Z,9.64
2022-11-09T18:22:03.352Z,9.65
2022-11-09T18:29:23.162Z,9.65
2022-11-09T18:32:50.217Z,9.62
2022-11-09T18:35:37.745Z,9.53
2022-11-09T18:38:29.138Z,9.45
2022-11-09T18:41:22.188Z,9.39
2022-11-09T18:44:09.671Z,9.32
2022-11-09T18:47:00.782Z,9.25
2022-11-09T18:49:52.932Z,9.18
2022-11-09T18:52:40.349Z,9.09
2022-11-09T18:55:27.864Z,9.03
2022-11-09T18:58:15.487Z,9.02
2022-11-09T19:01:06.406Z,9.03
2022-11-09T19:03:58.971Z,9.05
2022-11-09T19:06:47.325Z,9.01
2022-11-09T19:09:39.061Z,8.98
2022-11-09T19:12:26.554Z,8.95
2022-11-09T19:15:58.167Z,8.90
2022-11-09T19:18:45.839Z,8.85
2022-11-09T19:21:46.990Z,8.81
2022-11-09T19:24:34.718Z,8.76
2022-11-09T19:27:22.862Z,8.72
2022-11-09T19:30:10.493Z,8.67
2022-11-09T19:32:57.837Z,8.60
2022-11-09T19:36:01.845Z,8.51
2022-11-09T19:42:50.105Z,8.42
2022-11-09T19:45:57.129Z,8.41
2022-11-09T19:48:45.951Z,8.40
2022-11-09T19:51:52.913Z,8.40
2022-11-09T19:55:00.331Z,8.41
2022-11-09T19:58:07.725Z,8.42
2022-11-09T20:01:21.095Z,8.42
2022-11-09T20:04:28.617Z,8.40
2022-11-09T20:07:35.664Z,8.36
2022-11-09T20:11:08.432Z,8.33
2022-11-09T20:14:35.340Z,8.32
2022-11-09T20:18:03.977Z,8.31
2022-11-09T20:24:48.055Z,8.31
2022-11-09T20:27:35.582Z,8.29
2022-11-09T20:30:22.968Z,8.23
2022-11-09T20:33:10.843Z,8.18
2022-11-09T20:35:57.934Z,8.13
2022-11-09T20:38:45.695Z,8.07
2022-11-09T20:41:33.739Z,8.02
2022-11-09T20:44:21.472Z,8.00
2022-11-09T20:47:08.691Z,7.96
2022-11-09T20:49:56.326Z,7.93
2022-11-09T20:52:43.647Z,7.89
2022-11-09T20:55:31.583Z,7.83
2022-11-09T20:58:18.870Z,7.78
2022-11-09T21:01:12.138Z,7.73
2022-11-09T21:04:00.006Z,7.69
2022-11-09T21:06:47.463Z,7.65
2022-11-09T21:09:34.960Z,7.63
2022-11-09T21:12:22.080Z,7.61
2022-11-09T21:15:10.119Z,7.60
2022-11-09T21:17:57.548Z,7.59
2022-11-09T21:20:45.382Z,7.58
2022-11-09T21:23:51.451Z,7.56
2022-11-09T21:26:57.714Z,7.55
2022-11-09T21:29:50.976Z,7.54
2022-11-09T21:32:39.122Z,7.50
2022-11-09T21:35:26.032Z,7.46
2022-11-09T21:38:13.521Z,7.42
2022-11-09T21:41:06.890Z,7.37
2022-11-09T21:43:55.787Z,7.34
2022-11-09T21:46:43.623Z,7.33
2022-11-09T21:49:31.666Z,7.33
2022-11-09T21:52:18.991Z,7.34
2022-11-09T21:55:06.725Z,7.34
2022-11-09T21:57:53.635Z,7.33
2022-11-09T22:00:40.754Z,7.32
2022-11-09T22:03:27.874Z,7.31
2022-11-09T22:06:14.930Z,7.28
2022-11-09T22:09:02.009Z,7.26
2022-11-09T22:12:08.277Z,7.27
2022-11-09T22:15:13.828Z,7.28
2022-11-09T22:18:00.844Z,7.26
2022-11-09T22:20:56.769Z,7.26
2022-11-09T22:23:44.503Z,7.26
2022-11-09T22:26:32.339Z,7.25
2022-11-09T22:29:20.175Z,7.24
2022-11-09T22:32:07.397Z,7.22
2022-11-09T22:34:55.335Z,7.20
2022-11-09T22:37:42.656Z,7.18
2022-11-09T22:40:30.392Z,7.14
2022-11-09T22:43:18.076Z,7.10
2022-11-09T22:46:05.227Z,7.06
2022-11-09T22:48:52.364Z,7.03
2022-11-09T22:51:40.095Z,6.99
2022-11-09T22:54:28.240Z,6.97
2022-11-09T22:57:15.664Z,6.96
2022-11-09T23:00:02.681Z,6.95
2022-11-09T23:02:50.116Z,6.94
2022-11-09T23:05:37.430Z,6.92
2022-11-09T23:08:24.755Z,6.91
2022-11-09T23:11:13.860Z,6.91
2022-11-09T23:14:01.349Z,6.90
2022-11-09T23:16:48.466Z,6.89
2022-11-09T23:19:35.894Z,6.88
2022-11-09T23:22:23.321Z,6.88
2022-11-09T23:25:30.820Z,6.88
2022-11-09T23:28:18.243Z,6.88
2022-11-09T23:31:06.851Z,6.87
2022-11-09T23:33:55.141Z,6.87
2022-11-09T23:36:42.568Z,6.88
2022-11-09T23:39:30.097Z,6.91
2022-11-09T23:42:17.423Z,6.92
2022-11-09T23:45:04.952Z,6.92
2022-11-09T23:47:53.091Z,6.91
2022-11-09T23:50:41.785Z,6.87
2022-11-09T23:53:29.892Z,6.82
2022-11-09T23:56:17.624Z,6.75
2022-11-09T23:59:05.152Z,6.66
